sensor_id;sensor_type;location;lat;lon;timestamp;pressure;altitude;pressure_sealevel;temperature;humidity
56400;BME280;42298;53.638;9.876;2023-07-30T00:01:49;100501.88;;;21.08;76.80
56400;BME280;42298;53.638;9.876;2023-07-30T00:04:17;100514.19;;;20.96;78.06
56400;BME280;42298;53.638;9.876;2023-07-30T00:06:57;100521.59;;;20.82;77.94
56400;BME280;42298;53.638;9.876;2023-07-30T00:09:28;100515.84;;;20.67;79.51
56400;BME280;42298;53.638;9.876;2023-07-30T00:11:53;100517.44;;;20.68;79.54
56400;BME280;42298;53.638;9.876;2023-07-30T00:14:21;100496.09;;;20.53;78.75
56400;BME280;42298;53.638;9.876;2023-07-30T00:16:46;100510.94;;;20.57;79.11
56400;BME280;42298;53.638;9.876;2023-07-30T00:19:21;100502.09;;;20.55;80.00
56400;BME280;42298;53.638;9.876;2023-07-30T00:21:54;100511.66;;;20.51;79.68
56400;BME280;42298;53.638;9.876;2023-07-30T00:24:22;100492.75;;;20.41;79.97
56400;BME280;42298;53.638;9.876;2023-07-30T00:26:47;100494.72;;;20.37;79.78
56400;BME280;42298;53.638;9.876;2023-07-30T00:29:15;100510.00;;;20.46;79.85
56400;BME280;42298;53.638;9.876;2023-07-30T00:31:40;100505.47;;;20.35;79.48
56400;BME280;42298;53.638;9.876;2023-07-30T00:34:09;100524.78;;;20.47;79.75
56400;BME280;42298;53.638;9.876;2023-07-30T00:36:37;100493.91;;;20.36;79.64
56400;BME280;42298;53.638;9.876;2023-07-30T00:39:02;100514.50;;;20.54;79.36
56400;BME280;42298;53.638;9.876;2023-07-30T00:41:28;100508.84;;;20.51;79.14
56400;BME280;42298;53.638;9.876;2023-07-30T00:43:53;100509.59;;;20.48;79.54
56400;BME280;42298;53.638;9.876;2023-07-30T00:46:22;100479.47;;;20.34;79.95
56400;BME280;42298;53.638;9.876;2023-07-30T00:48:47;100490.91;;;20.52;79.73
56400;BME280;42298;53.638;9.876;2023-07-30T00:51:16;100444.25;;;20.30;79.42
56400;BME280;42298;53.638;9.876;2023-07-30T00:53:45;100456.44;;;20.48;79.13
56400;BME280;42298;53.638;9.876;2023-07-30T00:56:11;100435.16;;;20.36;78.97
56400;BME280;42298;53.638;9.876;2023-07-30T00:58:42;100499.84;;;20.68;78.91
56400;BME280;42298;53.638;9.876;2023-07-30T01:01:08;100475.25;;;20.47;79.07
56400;BME280;42298;53.638;9.876;2023-07-30T01:03:34;100487.59;;;20.46;79.01
56400;BME280;42298;53.638;9.876;2023-07-30T01:06:00;100506.16;;;20.61;78.27
56400;BME280;42298;53.638;9.876;2023-07-30T01:08:25;100483.53;;;20.37;79.30
56400;BME280;42298;53.638;9.876;2023-07-30T01:10:55;100515.69;;;20.53;79.18
56400;BME280;42298;53.638;9.876;2023-07-30T01:13:25;100487.09;;;20.37;78.88
56400;BME280;42298;53.638;9.876;2023-07-30T01:15:51;100508.91;;;20.54;78.98
56400;BME280;42298;53.638;9.876;2023-07-30T01:18:19;100485.00;;;20.27;78.69
56400;BME280;42298;53.638;9.876;2023-07-30T01:20:44;100510.28;;;20.38;78.15
56400;BME280;42298;53.638;9.876;2023-07-30T01:23:10;100515.47;;;20.36;79.13
56400;BME280;42298;53.638;9.876;2023-07-30T01:25:36;100466.41;;;20.12;78.95
56400;BME280;42298;53.638;9.876;2023-07-30T01:28:06;100492.94;;;20.25;79.06
56400;BME280;42298;53.638;9.876;2023-07-30T01:30:38;100501.13;;;20.41;78.84
56400;BME280;42298;53.638;9.876;2023-07-30T01:33:09;100520.00;;;20.47;78.55
56400;BME280;42298;53.638;9.876;2023-07-30T01:35:36;100509.91;;;20.39;77.66
56400;BME280;42298;53.638;9.876;2023-07-30T01:38:03;100508.50;;;20.23;78.50
56400;BME280;42298;53.638;9.876;2023-07-30T01:40:31;100513.34;;;20.26;79.34
56400;BME280;42298;53.638;9.876;2023-07-30T01:42:56;100512.56;;;20.29;79.39
56400;BME280;42298;53.638;9.876;2023-07-30T01:45:22;100516.91;;;20.23;78.99
56400;BME280;42298;53.638;9.876;2023-07-30T01:47:50;100504.50;;;20.20;79.05
56400;BME280;42298;53.638;9.876;2023-07-30T01:50:23;100482.31;;;20.08;78.86
56400;BME280;42298;53.638;9.876;2023-07-30T01:52:49;100484.59;;;19.99;79.39
56400;BME280;42298;53.638;9.876;2023-07-30T01:55:14;100473.41;;;19.99;79.02
56400;BME280;42298;53.638;9.876;2023-07-30T01:57:39;100498.84;;;20.17;79.00
56400;BME280;42298;53.638;9.876;2023-07-30T02:00:05;100496.31;;;20.08;78.78
56400;BME280;42298;53.638;9.876;2023-07-30T02:02:30;100499.84;;;20.05;79.12
56400;BME280;42298;53.638;9.876;2023-07-30T02:04:56;100518.34;;;20.13;78.72
56400;BME280;42298;53.638;9.876;2023-07-30T02:07:21;100511.25;;;20.19;78.53
56400;BME280;42298;53.638;9.876;2023-07-30T02:09:46;100475.31;;;19.92;78.07
56400;BME280;42298;53.638;9.876;2023-07-30T02:12:15;100514.41;;;20.18;78.09
56400;BME280;42298;53.638;9.876;2023-07-30T02:14:40;100527.94;;;20.12;78.82
56400;BME280;42298;53.638;9.876;2023-07-30T02:17:05;100501.94;;;20.12;78.53
56400;BME280;42298;53.638;9.876;2023-07-30T02:19:34;100509.47;;;20.08;78.45
56400;BME280;42298;53.638;9.876;2023-07-30T02:22:07;100498.97;;;19.98;78.56
56400;BME280;42298;53.638;9.876;2023-07-30T02:24:32;100505.47;;;20.09;78.29
56400;BME280;42298;53.638;9.876;2023-07-30T02:26:58;100512.00;;;20.16;78.64
56400;BME280;42298;53.638;9.876;2023-07-30T02:29:23;100518.78;;;20.15;78.34
56400;BME280;42298;53.638;9.876;2023-07-30T02:31:48;100517.56;;;20.13;78.41
56400;BME280;42298;53.638;9.876;2023-07-30T02:34:13;100529.53;;;20.13;78.15
56400;BME280;42298;53.638;9.876;2023-07-30T02:36:42;100524.22;;;20.05;78.10
56400;BME280;42298;53.638;9.876;2023-07-30T02:39:07;100528.47;;;19.95;78.16
56400;BME280;42298;53.638;9.876;2023-07-30T02:41:32;100516.72;;;19.83;78.51
56400;BME280;42298;53.638;9.876;2023-07-30T02:44:00;100524.13;;;19.72;79.58
56400;BME280;42298;53.638;9.876;2023-07-30T02:46:25;100526.63;;;19.80;79.58
56400;BME280;42298;53.638;9.876;2023-07-30T02:48:58;100536.97;;;19.76;79.62
56400;BME280;42298;53.638;9.876;2023-07-30T02:51:23;100525.72;;;19.73;79.56
56400;BME280;42298;53.638;9.876;2023-07-30T02:53:51;100532.56;;;19.75;79.30
56400;BME280;42298;53.638;9.876;2023-07-30T02:56:17;100531.69;;;19.71;79.30
56400;BME280;42298;53.638;9.876;2023-07-30T02:58:42;100538.41;;;19.67;79.50
56400;BME280;42298;53.638;9.876;2023-07-30T03:01:08;100536.31;;;19.60;80.13
56400;BME280;42298;53.638;9.876;2023-07-30T03:03:34;100541.53;;;19.62;80.01
56400;BME280;42298;53.638;9.876;2023-07-30T03:05:59;100529.06;;;19.56;79.80
56400;BME280;42298;53.638;9.876;2023-07-30T03:08:25;100540.72;;;19.61;79.94
56400;BME280;42298;53.638;9.876;2023-07-30T03:10:53;100540.28;;;19.59;79.99
56400;BME280;42298;53.638;9.876;2023-07-30T03:13:18;100543.03;;;19.56;80.10
56400;BME280;42298;53.638;9.876;2023-07-30T03:15:44;100543.03;;;19.56;80.06
56400;BME280;42298;53.638;9.876;2023-07-30T03:18:09;100541.38;;;19.51;80.41
56400;BME280;42298;53.638;9.876;2023-07-30T03:20:34;100551.97;;;19.65;79.58
56400;BME280;42298;53.638;9.876;2023-07-30T03:22:59;100546.38;;;19.65;79.31
56400;BME280;42298;53.638;9.876;2023-07-30T03:25:28;100552.81;;;19.69;79.57
56400;BME280;42298;53.638;9.876;2023-07-30T03:27:53;100558.03;;;19.70;78.85
56400;BME280;42298;53.638;9.876;2023-07-30T03:30:18;100561.13;;;19.65;78.57
56400;BME280;42298;53.638;9.876;2023-07-30T03:32:44;100554.38;;;19.66;79.38
56400;BME280;42298;53.638;9.876;2023-07-30T03:35:09;100546.75;;;19.63;78.53
56400;BME280;42298;53.638;9.876;2023-07-30T03:37:37;100552.28;;;19.60;78.60
56400;BME280;42298;53.638;9.876;2023-07-30T03:40:02;100555.16;;;19.67;78.81
56400;BME280;42298;53.638;9.876;2023-07-30T03:42:37;100551.97;;;19.65;78.04
56400;BME280;42298;53.638;9.876;2023-07-30T03:45:02;100531.78;;;19.52;78.58
56400;BME280;42298;53.638;9.876;2023-07-30T03:47:28;100549.94;;;19.65;78.29
56400;BME280;42298;53.638;9.876;2023-07-30T03:49:53;100526.03;;;19.42;78.46
56400;BME280;42298;53.638;9.876;2023-07-30T03:52:18;100561.47;;;19.60;78.33
56400;BME280;42298;53.638;9.876;2023-07-30T03:54:47;100542.16;;;19.52;77.75
56400;BME280;42298;53.638;9.876;2023-07-30T03:57:12;100554.59;;;19.54;77.43
56400;BME280;42298;53.638;9.876;2023-07-30T03:59:37;100561.47;;;19.60;77.65
56400;BME280;42298;53.638;9.876;2023-07-30T04:02:03;100550.53;;;19.52;78.03
56400;BME280;42298;53.638;9.876;2023-07-30T04:04:29;100538.31;;;19.37;78.26
56400;BME280;42298;53.638;9.876;2023-07-30T04:06:54;100556.13;;;19.52;78.38
56400;BME280;42298;53.638;9.876;2023-07-30T04:09:20;100554.50;;;19.51;78.51
56400;BME280;42298;53.638;9.876;2023-07-30T04:11:45;100560.59;;;19.56;78.13
56400;BME280;42298;53.638;9.876;2023-07-30T04:14:10;100557.69;;;19.49;78.95
56400;BME280;42298;53.638;9.876;2023-07-30T04:16:38;100563.34;;;19.53;78.90
56400;BME280;42298;53.638;9.876;2023-07-30T04:19:04;100547.34;;;19.53;78.19
56400;BME280;42298;53.638;9.876;2023-07-30T04:21:29;100577.41;;;19.60;79.03
56400;BME280;42298;53.638;9.876;2023-07-30T04:23:54;100566.59;;;19.58;78.18
56400;BME280;42298;53.638;9.876;2023-07-30T04:26:20;100548.94;;;19.51;79.01
56400;BME280;42298;53.638;9.876;2023-07-30T04:28:45;100559.84;;;19.59;79.08
56400;BME280;42298;53.638;9.876;2023-07-30T04:31:10;100563.56;;;19.67;79.14
56400;BME280;42298;53.638;9.876;2023-07-30T04:33:35;100567.09;;;19.64;78.97
56400;BME280;42298;53.638;9.876;2023-07-30T04:36:01;100563.00;;;19.58;79.18
56400;BME280;42298;53.638;9.876;2023-07-30T04:38:27;100570.25;;;19.62;78.98
56400;BME280;42298;53.638;9.876;2023-07-30T04:40:52;100559.72;;;19.52;79.56
56400;BME280;42298;53.638;9.876;2023-07-30T04:43:18;100552.09;;;19.49;79.62
56400;BME280;42298;53.638;9.876;2023-07-30T04:45:44;100571.94;;;19.67;79.38
56400;BME280;42298;53.638;9.876;2023-07-30T04:48:09;100576.72;;;19.66;79.68
56400;BME280;42298;53.638;9.876;2023-07-30T04:50:34;100565.56;;;19.66;79.49
56400;BME280;42298;53.638;9.876;2023-07-30T04:53:00;100575.22;;;19.72;78.71
56400;BME280;42298;53.638;9.876;2023-07-30T04:55:25;100563.63;;;19.70;79.29
56400;BME280;42298;53.638;9.876;2023-07-30T04:57:50;100580.81;;;19.72;79.99
56400;BME280;42298;53.638;9.876;2023-07-30T05:00:17;100582.81;;;19.72;79.60
56400;BME280;42298;53.638;9.876;2023-07-30T05:02:42;100541.53;;;19.62;79.53
56400;BME280;42298;53.638;9.876;2023-07-30T05:05:08;100568.94;;;19.79;79.33
56400;BME280;42298;53.638;9.876;2023-07-30T05:07:40;100528.63;;;19.54;79.69
56400;BME280;42298;53.638;9.876;2023-07-30T05:10:11;100559.47;;;19.87;79.69
56400;BME280;42298;53.638;9.876;2023-07-30T05:12:37;100565.34;;;19.78;79.44
56400;BME280;42298;53.638;9.876;2023-07-30T05:15:03;100547.97;;;19.66;79.86
56400;BME280;42298;53.638;9.876;2023-07-30T05:17:29;100567.78;;;19.80;79.15
56400;BME280;42298;53.638;9.876;2023-07-30T05:19:55;100568.25;;;19.85;78.25
56400;BME280;42298;53.638;9.876;2023-07-30T05:22:23;100568.56;;;19.80;78.65
56400;BME280;42298;53.638;9.876;2023-07-30T05:24:56;100562.00;;;19.69;79.13
56400;BME280;42298;53.638;9.876;2023-07-30T05:27:23;100566.94;;;19.79;78.79
56400;BME280;42298;53.638;9.876;2023-07-30T05:29:48;100562.06;;;19.99;78.47
56400;BME280;42298;53.638;9.876;2023-07-30T05:32:14;100562.88;;;19.99;77.81
56400;BME280;42298;53.638;9.876;2023-07-30T05:34:40;100567.34;;;20.04;79.01
56400;BME280;42298;53.638;9.876;2023-07-30T05:37:05;100565.31;;;20.04;78.71
56400;BME280;42298;53.638;9.876;2023-07-30T05:39:30;100564.16;;;20.05;78.85
56400;BME280;42298;53.638;9.876;2023-07-30T05:41:56;100567.00;;;20.09;78.30
56400;BME280;42298;53.638;9.876;2023-07-30T05:44:21;100564.28;;;20.12;78.35
56400;BME280;42298;53.638;9.876;2023-07-30T05:46:47;100576.31;;;20.16;77.96
56400;BME280;42298;53.638;9.876;2023-07-30T05:49:12;100580.69;;;20.14;78.74
56400;BME280;42298;53.638;9.876;2023-07-30T05:51:37;100557.50;;;20.13;78.27
56400;BME280;42298;53.638;9.876;2023-07-30T05:54:03;100575.91;;;20.14;77.84
56400;BME280;42298;53.638;9.876;2023-07-30T05:56:28;100563.91;;;20.14;77.48
56400;BME280;42298;53.638;9.876;2023-07-30T05:58:53;100574.41;;;20.20;78.64
56400;BME280;42298;53.638;9.876;2023-07-30T06:01:18;100579.31;;;20.30;77.62
56400;BME280;42298;53.638;9.876;2023-07-30T06:03:44;100577.88;;;20.40;76.93
56400;BME280;42298;53.638;9.876;2023-07-30T06:06:10;100582.97;;;20.34;77.43
56400;BME280;42298;53.638;9.876;2023-07-30T06:08:35;100579.25;;;20.27;77.93
56400;BME280;42298;53.638;9.876;2023-07-30T06:11:02;100584.59;;;20.35;77.77
56400;BME280;42298;53.638;9.876;2023-07-30T06:13:28;100575.34;;;20.31;77.74
56400;BME280;42298;53.638;9.876;2023-07-30T06:15:54;100577.06;;;20.39;77.87
56400;BME280;42298;53.638;9.876;2023-07-30T06:18:19;100585.00;;;20.37;77.88
56400;BME280;42298;53.638;9.876;2023-07-30T06:20:44;100583.50;;;20.43;77.66
56400;BME280;42298;53.638;9.876;2023-07-30T06:23:10;100580.44;;;20.52;76.79
56400;BME280;42298;53.638;9.876;2023-07-30T06:25:35;100575.84;;;20.40;77.47
56400;BME280;42298;53.638;9.876;2023-07-30T06:28:00;100574.34;;;20.46;77.92
56400;BME280;42298;53.638;9.876;2023-07-30T06:30:26;100593.25;;;20.56;76.90
56400;BME280;42298;53.638;9.876;2023-07-30T06:32:51;100571.22;;;20.51;77.97
56400;BME280;42298;53.638;9.876;2023-07-30T06:35:16;100570.59;;;20.65;77.81
56400;BME280;42298;53.638;9.876;2023-07-30T06:37:42;100588.81;;;20.85;77.32
56400;BME280;42298;53.638;9.876;2023-07-30T06:40:07;100587.34;;;20.95;77.29
56400;BME280;42298;53.638;9.876;2023-07-30T06:42:33;100590.38;;;20.83;76.53
56400;BME280;42298;53.638;9.876;2023-07-30T06:44:58;100585.03;;;20.70;76.91
56400;BME280;42298;53.638;9.876;2023-07-30T06:47:24;100587.84;;;20.70;77.49
56400;BME280;42298;53.638;9.876;2023-07-30T06:49:49;100576.94;;;20.62;77.45
56400;BME280;42298;53.638;9.876;2023-07-30T06:52:14;100586.38;;;20.83;76.76
56400;BME280;42298;53.638;9.876;2023-07-30T06:54:40;100583.22;;;20.85;76.40
56400;BME280;42298;53.638;9.876;2023-07-30T06:57:05;100592.72;;;20.77;77.42
56400;BME280;42298;53.638;9.876;2023-07-30T06:59:30;100595.09;;;20.75;76.97
56400;BME280;42298;53.638;9.876;2023-07-30T07:01:56;100592.75;;;20.80;76.90
56400;BME280;42298;53.638;9.876;2023-07-30T07:04:21;100589.41;;;20.68;76.34
56400;BME280;42298;53.638;9.876;2023-07-30T07:06:47;100606.28;;;20.75;76.87
56400;BME280;42298;53.638;9.876;2023-07-30T07:09:12;100598.72;;;20.75;76.77
56400;BME280;42298;53.638;9.876;2023-07-30T07:11:37;100593.63;;;20.85;76.38
56400;BME280;42298;53.638;9.876;2023-07-30T07:14:02;100587.50;;;20.75;76.45
56400;BME280;42298;53.638;9.876;2023-07-30T07:16:28;100595.66;;;20.88;77.11
56400;BME280;42298;53.638;9.876;2023-07-30T07:18:53;100608.28;;;21.08;76.18
56400;BME280;42298;53.638;9.876;2023-07-30T07:21:18;100599.50;;;21.06;76.41
56400;BME280;42298;53.638;9.876;2023-07-30T07:23:45;100601.97;;;21.14;75.88
56400;BME280;42298;53.638;9.876;2023-07-30T07:26:10;100601.03;;;21.00;76.02
56400;BME280;42298;53.638;9.876;2023-07-30T07:28:36;100598.28;;;21.07;76.18
56400;BME280;42298;53.638;9.876;2023-07-30T07:31:01;100599.50;;;21.09;75.63
56400;BME280;42298;53.638;9.876;2023-07-30T07:33:26;100611.72;;;20.94;76.27
56400;BME280;42298;53.638;9.876;2023-07-30T07:36:02;100607.47;;;21.04;75.54
56400;BME280;42298;53.638;9.876;2023-07-30T07:38:28;100610.44;;;21.18;76.21
56400;BME280;42298;53.638;9.876;2023-07-30T07:40:53;100614.41;;;21.17;75.03
56400;BME280;42298;53.638;9.876;2023-07-30T07:43:18;100621.69;;;21.25;75.11
56400;BME280;42298;53.638;9.876;2023-07-30T07:45:44;100614.59;;;21.34;75.20
56400;BME280;42298;53.638;9.876;2023-07-30T07:48:09;100602.16;;;21.32;74.86
56400;BME280;42298;53.638;9.876;2023-07-30T07:50:34;100602.16;;;21.32;74.83
56400;BME280;42298;53.638;9.876;2023-07-30T07:52:59;100611.81;;;21.38;74.62
56400;BME280;42298;53.638;9.876;2023-07-30T07:55:25;100607.13;;;21.49;74.57
56400;BME280;42298;53.638;9.876;2023-07-30T07:57:50;100594.44;;;21.62;74.14
56400;BME280;42298;53.638;9.876;2023-07-30T08:00:17;100594.19;;;21.77;73.87
56400;BME280;42298;53.638;9.876;2023-07-30T08:02:42;100570.59;;;21.85;73.21
56400;BME280;42298;53.638;9.876;2023-07-30T08:05:08;100587.25;;;22.18;72.90
56400;BME280;42298;53.638;9.876;2023-07-30T08:07:33;100581.25;;;22.16;71.20
56400;BME280;42298;53.638;9.876;2023-07-30T08:09:58;100598.13;;;22.23;71.07
56400;BME280;42298;53.638;9.876;2023-07-30T08:12:24;100593.41;;;22.41;71.21
56400;BME280;42298;53.638;9.876;2023-07-30T08:14:49;100595.53;;;22.55;71.12
56400;BME280;42298;53.638;9.876;2023-07-30T08:17:15;100597.56;;;22.65;69.96
56400;BME280;42298;53.638;9.876;2023-07-30T08:19:41;100581.56;;;22.73;69.98
56400;BME280;42298;53.638;9.876;2023-07-30T08:22:06;100592.47;;;22.95;69.08
56400;BME280;42298;53.638;9.876;2023-07-30T08:24:31;100587.31;;;23.08;69.18
56400;BME280;42298;53.638;9.876;2023-07-30T08:26:58;100588.88;;;23.02;68.09
56400;BME280;42298;53.638;9.876;2023-07-30T08:29:23;100592.94;;;23.15;68.57
56400;BME280;42298;53.638;9.876;2023-07-30T08:31:49;100566.88;;;23.25;68.52
56400;BME280;42298;53.638;9.876;2023-07-30T08:34:15;100581.75;;;23.32;67.60
56400;BME280;42298;53.638;9.876;2023-07-30T08:36:41;100588.97;;;23.30;67.47
56400;BME280;42298;53.638;9.876;2023-07-30T08:39:06;100587.75;;;23.31;66.33
56400;BME280;42298;53.638;9.876;2023-07-30T08:41:32;100586.56;;;23.35;66.06
56400;BME280;42298;53.638;9.876;2023-07-30T08:43:57;100593.81;;;23.33;67.47
56400;BME280;42298;53.638;9.876;2023-07-30T08:46:23;100592.59;;;23.34;66.81
56400;BME280;42298;53.638;9.876;2023-07-30T08:48:48;100586.19;;;23.40;66.82
56400;BME280;42298;53.638;9.876;2023-07-30T08:51:14;100593.81;;;23.43;65.92
56400;BME280;42298;53.638;9.876;2023-07-30T08:53:41;100598.63;;;23.39;64.97
56400;BME280;42298;53.638;9.876;2023-07-30T08:56:08;100607.00;;;23.18;65.50
56400;BME280;42298;53.638;9.876;2023-07-30T08:58:34;100595.41;;;23.34;67.60
56400;BME280;42298;53.638;9.876;2023-07-30T09:01:01;100600.66;;;23.49;65.31
56400;BME280;42298;53.638;9.876;2023-07-30T09:03:29;100600.66;;;23.49;64.49
56400;BME280;42298;53.638;9.876;2023-07-30T09:05:56;100602.63;;;23.38;65.12
56400;BME280;42298;53.638;9.876;2023-07-30T09:08:23;100587.75;;;23.31;66.08
56400;BME280;42298;53.638;9.876;2023-07-30T09:10:48;100603.88;;;23.51;64.74
56400;BME280;42298;53.638;9.876;2023-07-30T09:13:21;100602.63;;;23.24;64.29
56400;BME280;42298;53.638;9.876;2023-07-30T09:15:48;100610.25;;;23.27;65.40
56400;BME280;42298;53.638;9.876;2023-07-30T09:18:16;100601.03;;;23.30;64.71
56400;BME280;42298;53.638;9.876;2023-07-30T09:20:42;100598.63;;;23.36;64.76
56400;BME280;42298;53.638;9.876;2023-07-30T09:23:08;100610.66;;;23.33;64.91
56400;BME280;42298;53.638;9.876;2023-07-30T09:25:35;100600.97;;;23.23;64.73
56400;BME280;42298;53.638;9.876;2023-07-30T09:28:00;100592.53;;;23.23;63.63
56400;BME280;42298;53.638;9.876;2023-07-30T09:30:26;100609.88;;;23.39;64.86
56400;BME280;42298;53.638;9.876;2023-07-30T09:32:57;100610.66;;;23.29;64.30
56400;BME280;42298;53.638;9.876;2023-07-30T09:35:23;100610.56;;;23.05;65.60
56400;BME280;42298;53.638;9.876;2023-07-30T09:38:00;100621.81;;;23.12;65.96
56400;BME280;42298;53.638;9.876;2023-07-30T09:40:36;100616.19;;;23.05;64.78
56400;BME280;42298;53.638;9.876;2023-07-30T09:43:03;100632.13;;;22.80;65.64
56400;BME280;42298;53.638;9.876;2023-07-30T09:45:28;100640.06;;;22.64;64.75
56400;BME280;42298;53.638;9.876;2023-07-30T09:47:59;100637.75;;;22.76;65.40
56400;BME280;42298;53.638;9.876;2023-07-30T09:50:27;100616.81;;;22.63;64.13
56400;BME280;42298;53.638;9.876;2023-07-30T09:52:54;100643.34;;;22.76;64.42
56400;BME280;42298;53.638;9.876;2023-07-30T09:55:19;100648.19;;;22.79;64.70
56400;BME280;42298;53.638;9.876;2023-07-30T09:57:44;100634.53;;;22.78;64.12
56400;BME280;42298;53.638;9.876;2023-07-30T10:00:10;100637.41;;;22.95;63.72
56400;BME280;42298;53.638;9.876;2023-07-30T10:02:42;100619.41;;;23.17;62.95
56400;BME280;42298;53.638;9.876;2023-07-30T10:05:14;100623.91;;;23.32;63.29
56400;BME280;42298;53.638;9.876;2023-07-30T10:08:10;100628.34;;;23.40;62.37
56400;BME280;42298;53.638;9.876;2023-07-30T10:10:36;100615.09;;;23.44;62.16
56400;BME280;42298;53.638;9.876;2023-07-30T10:13:07;100638.03;;;23.60;63.00
56400;BME280;42298;53.638;9.876;2023-07-30T10:15:39;100631.59;;;23.67;62.20
56400;BME280;42298;53.638;9.876;2023-07-30T10:18:05;100645.22;;;23.47;60.63
56400;BME280;42298;53.638;9.876;2023-07-30T10:20:30;100652.47;;;23.55;61.83
56400;BME280;42298;53.638;9.876;2023-07-30T10:22:57;100652.84;;;23.50;60.55
56400;BME280;42298;53.638;9.876;2023-07-30T10:28:26;100646.84;;;23.73;60.46
56400;BME280;42298;53.638;9.876;2023-07-30T10:30:59;100651.28;;;23.77;60.22
56400;BME280;42298;53.638;9.876;2023-07-30T10:33:44;100657.72;;;23.74;61.09
56400;BME280;42298;53.638;9.876;2023-07-30T10:36:12;100648.44;;;23.49;60.70
56400;BME280;42298;53.638;9.876;2023-07-30T10:38:44;100656.03;;;23.38;61.25
56400;BME280;42298;53.638;9.876;2023-07-30T10:41:13;100650.81;;;23.30;61.99
56400;BME280;42298;53.638;9.876;2023-07-30T10:43:45;100657.94;;;23.10;61.93
56400;BME280;42298;53.638;9.876;2023-07-30T10:46:18;100661.56;;;23.14;63.04
56400;BME280;42298;53.638;9.876;2023-07-30T10:48:46;100662.84;;;23.27;62.28
56400;BME280;42298;53.638;9.876;2023-07-30T10:51:13;100654.81;;;23.32;61.39
56400;BME280;42298;53.638;9.876;2023-07-30T10:53:42;100634.75;;;23.27;61.60
56400;BME280;42298;53.638;9.876;2023-07-30T10:56:16;100647.56;;;23.28;61.49
56400;BME280;42298;53.638;9.876;2023-07-30T10:58:42;100657.28;;;23.55;61.60
56400;BME280;42298;53.638;9.876;2023-07-30T11:01:14;100630.34;;;23.43;59.33
56400;BME280;42298;53.638;9.876;2023-07-30T11:03:39;100655.66;;;23.43;57.45
56400;BME280;42298;53.638;9.876;2023-07-30T11:06:05;100655.25;;;23.38;56.82
56400;BME280;42298;53.638;9.876;2023-07-30T11:11:02;100650.88;;;23.61;56.70
56400;BME280;42298;53.638;9.876;2023-07-30T11:13:35;100646.84;;;23.73;55.65
56400;BME280;42298;53.638;9.876;2023-07-30T11:16:03;100644.84;;;23.87;56.10
56400;BME280;42298;53.638;9.876;2023-07-30T11:18:31;100646.06;;;23.93;55.06
56400;BME280;42298;53.638;9.876;2023-07-30T11:21:13;100652.09;;;24.13;53.64
56400;BME280;42298;53.638;9.876;2023-07-30T11:23:40;100631.59;;;24.16;54.23
56400;BME280;42298;53.638;9.876;2023-07-30T11:26:08;100623.97;;;24.20;53.41
56400;BME280;42298;53.638;9.876;2023-07-30T11:28:36;100639.22;;;24.33;53.48
56400;BME280;42298;53.638;9.876;2023-07-30T11:31:15;100627.16;;;24.25;53.61
56400;BME280;42298;53.638;9.876;2023-07-30T11:33:46;100639.59;;;24.38;54.30
56400;BME280;42298;53.638;9.876;2023-07-30T11:36:18;100619.97;;;24.10;53.25
56400;BME280;42298;53.638;9.876;2023-07-30T11:38:45;100647.69;;;24.22;51.96
56400;BME280;42298;53.638;9.876;2023-07-30T11:41:12;100636.44;;;24.22;53.11
56400;BME280;42298;53.638;9.876;2023-07-30T11:43:40;100632.34;;;24.48;54.01
56400;BME280;42298;53.638;9.876;2023-07-30T11:46:16;100615.44;;;24.55;53.63
56400;BME280;42298;53.638;9.876;2023-07-30T11:49:13;100624.28;;;24.68;53.63
56400;BME280;42298;53.638;9.876;2023-07-30T11:51:39;100625.06;;;24.72;53.17
56400;BME280;42298;53.638;9.876;2023-07-30T11:54:19;100625.44;;;24.77;52.10
56400;BME280;42298;53.638;9.876;2023-07-30T11:56:45;100620.97;;;24.83;51.71
56400;BME280;42298;53.638;9.876;2023-07-30T11:59:10;100623.78;;;24.87;50.94
56400;BME280;42298;53.638;9.876;2023-07-30T12:01:36;100627.47;;;24.70;49.06
56400;BME280;42298;53.638;9.876;2023-07-30T12:04:06;100597.75;;;24.51;51.04
56400;BME280;42298;53.638;9.876;2023-07-30T12:09:17;100622.75;;;25.28;50.96
56400;BME280;42298;53.638;9.876;2023-07-30T12:12:01;100612.53;;;25.59;50.71
56400;BME280;42298;53.638;9.876;2023-07-30T12:17:11;100600.50;;;25.48;51.46
56400;BME280;42298;53.638;9.876;2023-07-30T12:19:38;100606.50;;;25.57;50.54
56400;BME280;42298;53.638;9.876;2023-07-30T12:22:04;100599.66;;;25.58;49.67
56400;BME280;42298;53.638;9.876;2023-07-30T12:24:29;100613.34;;;25.56;49.56
56400;BME280;42298;53.638;9.876;2023-07-30T12:26:56;100602.06;;;25.56;50.28
56400;BME280;42298;53.638;9.876;2023-07-30T12:29:21;100599.91;;;25.74;47.65
56400;BME280;42298;53.638;9.876;2023-07-30T12:31:49;100588.59;;;25.19;48.30
56400;BME280;42298;53.638;9.876;2023-07-30T12:34:18;100595.16;;;24.99;49.70
56400;BME280;42298;53.638;9.876;2023-07-30T12:36:43;100574.69;;;24.88;49.89
56400;BME280;42298;53.638;9.876;2023-07-30T12:39:09;100596.44;;;24.84;49.27
56400;BME280;42298;53.638;9.876;2023-07-30T12:41:34;100590.94;;;24.45;49.86
56400;BME280;42298;53.638;9.876;2023-07-30T12:43:59;100564.00;;;24.41;50.49
56400;BME280;42298;53.638;9.876;2023-07-30T12:46:25;100579.25;;;24.50;50.80
56400;BME280;42298;53.638;9.876;2023-07-30T12:48:58;100580.84;;;24.51;50.20
56400;BME280;42298;53.638;9.876;2023-07-30T12:51:29;100593.78;;;24.34;50.65
56400;BME280;42298;53.638;9.876;2023-07-30T12:53:55;100597.44;;;24.07;51.14
56400;BME280;42298;53.638;9.876;2023-07-30T12:56:20;100592.22;;;23.91;51.08
56400;BME280;42298;53.638;9.876;2023-07-30T12:58:52;100593.81;;;23.78;51.46
56400;BME280;42298;53.638;9.876;2023-07-30T13:01:23;100593.03;;;23.78;51.17